Time;durP1;ratioP1;P1;durP2;ratioP2;P2;SDS_P1;SDS_P2;PMS_P1;PMS_P2;Temp;Humidity;BMP_temperature;BMP_pressure;BME280_temperature;BME280_humidity;BME280_pressure;Samples;Min_cycle;Max_cycle;Signal;HPM_P1;HPM_P2
2022/07/16 00:03:44;;;;;;;0.63;0.60;;;;;;;;;;5133801;27;20027;-77
2022/07/16 00:06:09;;;;;;;1.95;0.90;;;;;;;;;;5134094;27;20087;-77
2022/07/16 00:08:35;;;;;;;2.88;0.60;;;;;;;;;;5115882;27;20034;-77
2022/07/16 00:11:00;;;;;;;1.70;0.90;;;;;;;;;;5140002;27;20027;-77
2022/07/16 00:13:25;;;;;;;2.92;0.95;;;;;;;;;;5137323;27;20468;-77
2022/07/16 00:15:53;;;;;;;2.25;0.80;;;;;;;;;;5154250;27;20047;-77
2022/07/16 00:21:04;;;;;;;0.90;0.43;;;;;;;;;;5154536;27;20026;-77
2022/07/16 00:23:29;;;;;;;2.67;0.90;;;;;;;;;;5154397;27;20061;-77
2022/07/16 00:25:54;;;;;;;1.38;0.70;;;;;;;;;;5137430;27;20456;-77
2022/07/16 00:28:20;;;;;;;2.97;0.90;;;;;;;;;;5154965;27;20124;-77
2022/07/16 00:30:45;;;;;;;2.95;0.70;;;;;;;;;;5155412;27;20070;-77
2022/07/16 00:33:11;;;;;;;2.80;0.70;;;;;;;;;;5155908;27;20130;-77
2022/07/16 00:35:36;;;;;;;5.68;0.88;;;;;;;;;;5154534;27;20432;-77
2022/07/16 00:38:02;;;;;;;1.10;0.82;;;;;;;;;;5137643;27;20044;-77
2022/07/16 00:40:27;;;;;;;2.42;0.68;;;;;;;;;;5136065;27;20126;-77
2022/07/16 00:42:53;;;;;;;2.05;0.80;;;;;;;;;;5117035;27;20079;-77
2022/07/16 00:45:18;;;;;;;2.78;0.63;;;;;;;;;;5133518;27;20035;-77
2022/07/16 00:47:44;;;;;;;8.32;1.00;;;;;;;;;;5134508;27;20492;-77
2022/07/16 00:50:09;;;;;;;1.90;0.85;;;;;;;;;;5115587;28;20099;-77
2022/07/16 00:52:36;;;;;;;1.77;0.85;;;;;;;;;;5133816;27;20114;-77
2022/07/16 00:55:03;;;;;;;1.35;0.75;;;;;;;;;;5116098;28;20035;-77
2022/07/16 00:57:29;;;;;;;5.05;1.00;;;;;;;;;;5135236;27;20049;-77
2022/07/16 00:59:54;;;;;;;8.00;1.10;;;;;;;;;;5117607;27;20031;-77
2022/07/16 01:02:21;;;;;;;2.22;0.90;;;;;;;;;;5140613;27;20037;-77
2022/07/16 01:04:47;;;;;;;1.48;0.55;;;;;;;;;;5123230;27;20023;-77
2022/07/16 01:07:13;;;;;;;7.90;0.73;;;;;;;;;;5123553;27;20062;-77
2022/07/16 01:09:39;;;;;;;3.10;0.90;;;;;;;;;;5123229;27;20492;-77
2022/07/16 01:12:06;;;;;;;2.00;0.90;;;;;;;;;;5140908;27;20031;-76
2022/07/16 01:14:31;;;;;;;4.20;0.80;;;;;;;;;;5123511;27;20122;-77
2022/07/16 01:16:57;;;;;;;2.22;0.88;;;;;;;;;;5140551;27;20165;-77
2022/07/16 01:19:23;;;;;;;1.17;0.80;;;;;;;;;;5123601;27;20063;-77
2022/07/16 01:21:49;;;;;;;0.70;0.70;;;;;;;;;;5123644;27;20037;-77
2022/07/16 01:24:15;;;;;;;2.13;0.80;;;;;;;;;;5140711;27;20541;-77
2022/07/16 01:26:40;;;;;;;1.65;0.93;;;;;;;;;;5123133;27;20038;-77
2022/07/16 01:29:06;;;;;;;1.27;0.60;;;;;;;;;;5140362;27;20476;-77
2022/07/16 01:31:31;;;;;;;2.10;0.75;;;;;;;;;;5140499;27;20133;-77
2022/07/16 01:36:40;;;;;;;1.42;0.65;;;;;;;;;;5141938;27;20118;-77
2022/07/16 01:39:06;;;;;;;2.47;0.90;;;;;;;;;;5140342;27;20126;-77
2022/07/16 01:41:32;;;;;;;1.45;0.63;;;;;;;;;;5122004;27;20051;-77
2022/07/16 01:43:58;;;;;;;2.83;1.00;;;;;;;;;;5122838;27;20049;-77
2022/07/16 01:46:23;;;;;;;3.83;1.15;;;;;;;;;;5141810;27;20031;-77
2022/07/16 01:48:50;;;;;;;2.35;0.80;;;;;;;;;;5123247;27;20051;-77
2022/07/16 01:51:15;;;;;;;1.58;0.82;;;;;;;;;;5140107;27;20038;-77
2022/07/16 01:53:41;;;;;;;2.13;1.00;;;;;;;;;;5122949;27;20488;-77
2022/07/16 01:56:07;;;;;;;2.25;0.63;;;;;;;;;;5140348;27;20484;-78
2022/07/16 01:58:32;;;;;;;2.42;0.90;;;;;;;;;;5139582;27;20046;-77
2022/07/16 02:00:58;;;;;;;1.33;0.90;;;;;;;;;;5122953;27;20035;-77
2022/07/16 02:03:23;;;;;;;1.33;0.70;;;;;;;;;;5139653;27;20122;-77
2022/07/16 02:05:49;;;;;;;1.83;0.70;;;;;;;;;;5139667;27;20099;-77
2022/07/16 02:08:15;;;;;;;5.47;0.85;;;;;;;;;;5137742;27;20046;-77
2022/07/16 02:10:40;;;;;;;2.58;0.80;;;;;;;;;;5102418;27;20027;-77
2022/07/16 02:13:06;;;;;;;1.52;0.73;;;;;;;;;;5115417;28;20043;-77
2022/07/16 02:15:33;;;;;;;1.75;0.80;;;;;;;;;;5116373;28;20035;-78
2022/07/16 02:17:58;;;;;;;1.42;0.80;;;;;;;;;;5115138;27;20050;-77
2022/07/16 02:20:24;;;;;;;1.15;0.90;;;;;;;;;;5119326;27;20440;-77
2022/07/16 02:22:52;;;;;;;2.05;0.90;;;;;;;;;;5118983;27;20046;-77
2022/07/16 02:25:18;;;;;;;3.90;0.90;;;;;;;;;;5136606;27;20038;-77
2022/07/16 02:30:28;;;;;;;4.15;0.90;;;;;;;;;;5139179;27;20031;-77
2022/07/16 02:32:54;;;;;;;4.55;1.20;;;;;;;;;;5120132;27;20114;-77
2022/07/16 02:35:19;;;;;;;2.60;0.85;;;;;;;;;;5135937;27;20035;-77
2022/07/16 02:37:45;;;;;;;1.85;1.00;;;;;;;;;;5137405;27;20066;-78
2022/07/16 02:40:11;;;;;;;5.30;1.00;;;;;;;;;;5119697;27;20369;-77
2022/07/16 02:42:36;;;;;;;2.33;0.95;;;;;;;;;;5119447;27;20453;-77
2022/07/16 02:45:02;;;;;;;2.42;0.93;;;;;;;;;;5136546;27;20047;-77
2022/07/16 02:47:28;;;;;;;2.20;1.00;;;;;;;;;;5119160;27;20667;-77
2022/07/16 02:49:53;;;;;;;1.45;0.80;;;;;;;;;;5135549;27;20039;-77
2022/07/16 02:52:18;;;;;;;4.38;0.98;;;;;;;;;;5136113;27;20043;-77
2022/07/16 02:54:44;;;;;;;6.07;1.00;;;;;;;;;;5119016;27;20035;-77
2022/07/16 02:57:10;;;;;;;3.30;1.10;;;;;;;;;;5136860;27;20072;-77
2022/07/16 02:59:36;;;;;;;3.75;1.40;;;;;;;;;;5118274;27;20023;-77
2022/07/16 03:02:01;;;;;;;1.48;0.70;;;;;;;;;;5118550;27;20480;-77
2022/07/16 03:04:27;;;;;;;3.63;0.90;;;;;;;;;;5135771;27;20035;-77
2022/07/16 03:06:52;;;;;;;3.55;1.00;;;;;;;;;;5138733;27;20042;-77
2022/07/16 03:09:18;;;;;;;2.55;0.98;;;;;;;;;;5139113;27;20045;-77
2022/07/16 03:11:43;;;;;;;2.47;1.13;;;;;;;;;;5156058;27;20039;-77
2022/07/16 03:14:09;;;;;;;3.25;0.80;;;;;;;;;;5138721;27;20117;-77
2022/07/16 03:16:34;;;;;;;3.88;0.85;;;;;;;;;;5139073;27;20458;-77
2022/07/16 03:19:00;;;;;;;3.95;1.50;;;;;;;;;;5154342;27;20095;-77
2022/07/16 03:21:25;;;;;;;2.20;1.20;;;;;;;;;;5138462;27;20057;-77
2022/07/16 03:23:51;;;;;;;3.58;1.42;;;;;;;;;;5138709;27;20034;-77
2022/07/16 03:26:16;;;;;;;5.72;1.17;;;;;;;;;;5155964;27;20098;-77
2022/07/16 03:28:42;;;;;;;6.68;1.15;;;;;;;;;;5138997;27;20026;-78
2022/07/16 03:31:07;;;;;;;2.50;1.10;;;;;;;;;;5139254;27;20468;-77
2022/07/16 03:33:33;;;;;;;1.35;0.77;;;;;;;;;;5156754;27;20031;-77
2022/07/16 03:35:58;;;;;;;1.67;1.00;;;;;;;;;;5156560;27;20117;-78
2022/07/16 03:41:08;;;;;;;2.78;1.05;;;;;;;;;;5114533;28;20043;-77
2022/07/16 03:43:33;;;;;;;1.45;1.02;;;;;;;;;;5116022;28;20027;-77
2022/07/16 03:45:59;;;;;;;1.85;1.10;;;;;;;;;;5096907;28;20035;-77
2022/07/16 03:48:24;;;;;;;1.73;0.90;;;;;;;;;;5113654;28;20036;-77
2022/07/16 03:50:50;;;;;;;4.63;1.17;;;;;;;;;;5096788;28;20046;-77
2022/07/16 03:53:15;;;;;;;4.53;0.82;;;;;;;;;;5097029;28;20373;-77
2022/07/16 03:55:41;;;;;;;3.15;0.80;;;;;;;;;;5131190;27;20047;-77
2022/07/16 03:58:06;;;;;;;2.72;1.20;;;;;;;;;;5131616;27;20088;-77
2022/07/16 04:00:31;;;;;;;2.75;0.70;;;;;;;;;;5131941;27;20031;-77
2022/07/16 04:02:57;;;;;;;5.65;0.90;;;;;;;;;;5133067;27;20055;-77
2022/07/16 04:05:23;;;;;;;3.90;1.02;;;;;;;;;;5115354;28;20032;-77
2022/07/16 04:07:48;;;;;;;9.50;1.02;;;;;;;;;;5117296;28;20035;-77
2022/07/16 04:10:14;;;;;;;2.08;0.80;;;;;;;;;;5136655;27;20058;-78
2022/07/16 04:12:39;;;;;;;1.08;0.98;;;;;;;;;;5119918;27;20065;-77
2022/07/16 04:15:05;;;;;;;2.20;0.95;;;;;;;;;;5118548;27;20070;-77
2022/07/16 04:17:30;;;;;;;2.80;1.00;;;;;;;;;;5135104;27;20453;-77
2022/07/16 04:19:56;;;;;;;1.58;0.93;;;;;;;;;;5117888;27;20103;-78
2022/07/16 04:22:21;;;;;;;2.88;1.00;;;;;;;;;;5135469;27;20062;-77
2022/07/16 04:24:47;;;;;;;1.23;0.85;;;;;;;;;;5134303;27;20031;-78
2022/07/16 04:27:12;;;;;;;3.15;1.00;;;;;;;;;;5137309;27;20035;-78
2022/07/16 04:29:38;;;;;;;3.70;1.13;;;;;;;;;;5119194;28;20031;-78
2022/07/16 04:32:04;;;;;;;3.78;0.98;;;;;;;;;;5137383;27;20090;-77
2022/07/16 04:34:30;;;;;;;8.00;0.98;;;;;;;;;;5118870;28;20071;-77
2022/07/16 04:36:55;;;;;;;2.90;1.00;;;;;;;;;;5135865;27;20067;-78
2022/07/16 04:39:20;;;;;;;3.63;1.10;;;;;;;;;;5144590;27;20038;-78
2022/07/16 04:41:46;;;;;;;3.88;1.20;;;;;;;;;;5140436;27;20039;-78
2022/07/16 04:44:12;;;;;;;1.63;0.73;;;;;;;;;;5156368;27;20384;-78
2022/07/16 04:46:38;;;;;;;5.82;1.20;;;;;;;;;;5156856;27;20488;-77
2022/07/16 04:49:03;;;;;;;2.00;0.90;;;;;;;;;;5157121;27;20041;-77
2022/07/16 04:51:28;;;;;;;3.92;1.10;;;;;;;;;;5140101;27;20088;-78
2022/07/16 04:53:54;;;;;;;3.60;0.93;;;;;;;;;;5139403;27;20038;-78
2022/07/16 04:56:19;;;;;;;3.65;0.98;;;;;;;;;;5156984;27;20540;-78
2022/07/16 04:58:45;;;;;;;3.67;1.15;;;;;;;;;;5156109;27;20035;-78
2022/07/16 05:01:10;;;;;;;1.90;1.00;;;;;;;;;;5139753;27;20061;-78
2022/07/16 05:03:36;;;;;;;3.83;1.40;;;;;;;;;;5158173;27;20031;-78
2022/07/16 05:06:01;;;;;;;1.55;0.80;;;;;;;;;;5140431;27;20049;-78
2022/07/16 05:08:27;;;;;;;2.17;1.13;;;;;;;;;;5140486;27;20031;-78
2022/07/16 05:10:53;;;;;;;2.90;1.02;;;;;;;;;;5138003;27;20035;-78
2022/07/16 05:13:18;;;;;;;3.22;1.60;;;;;;;;;;5120447;28;20125;-77
2022/07/16 05:15:44;;;;;;;7.32;1.17;;;;;;;;;;5120318;27;20065;-78
2022/07/16 05:18:11;;;;;;;4.57;0.98;;;;;;;;;;5120367;28;20047;-78
2022/07/16 05:20:37;;;;;;;4.90;0.90;;;;;;;;;;5120455;28;20035;-78
2022/07/16 05:23:03;;;;;;;4.65;1.42;;;;;;;;;;5119936;28;20122;-78
2022/07/16 05:25:29;;;;;;;4.57;0.88;;;;;;;;;;5138406;27;20441;-78
2022/07/16 05:27:54;;;;;;;2.95;1.20;;;;;;;;;;5120129;28;20094;-78
2022/07/16 05:30:20;;;;;;;3.03;1.75;;;;;;;;;;5119059;27;20035;-77
2022/07/16 05:32:46;;;;;;;3.20;1.90;;;;;;;;;;5119281;28;20084;-78
2022/07/16 05:35:13;;;;;;;3.67;1.25;;;;;;;;;;5136840;28;20039;-78
2022/07/16 05:37:39;;;;;;;6.38;0.70;;;;;;;;;;5119836;28;20046;-78
2022/07/16 05:40:06;;;;;;;3.35;1.02;;;;;;;;;;5119448;28;20050;-78
2022/07/16 05:42:32;;;;;;;9.23;1.13;;;;;;;;;;5118283;28;20073;-78
2022/07/16 05:44:57;;;;;;;3.10;1.00;;;;;;;;;;5137224;27;20023;-78
2022/07/16 05:47:23;;;;;;;5.65;1.20;;;;;;;;;;5122539;27;20065;-78
2022/07/16 05:49:49;;;;;;;1.45;0.88;;;;;;;;;;5139583;27;20023;-77
2022/07/16 05:52:15;;;;;;;4.78;1.40;;;;;;;;;;5122617;27;20449;-78
2022/07/16 05:54:41;;;;;;;3.25;1.10;;;;;;;;;;5123658;27;20035;-78
2022/07/16 05:57:07;;;;;;;5.00;1.80;;;;;;;;;;5140042;27;20042;-78
2022/07/16 05:59:32;;;;;;;6.30;2.30;;;;;;;;;;5140894;27;20380;-78
2022/07/16 06:01:58;;;;;;;5.80;2.58;;;;;;;;;;5140782;27;20096;-78
2022/07/16 06:04:23;;;;;;;4.80;2.10;;;;;;;;;;5123677;27;20035;-78
2022/07/16 06:06:49;;;;;;;5.85;1.88;;;;;;;;;;5122994;27;20034;-77
2022/07/16 06:09:15;;;;;;;5.50;1.60;;;;;;;;;;5140894;27;20112;-78
2022/07/16 06:11:40;;;;;;;3.28;1.88;;;;;;;;;;5139829;27;20434;-78
2022/07/16 06:14:06;;;;;;;3.95;1.33;;;;;;;;;;5140877;27;20042;-77
2022/07/16 06:16:31;;;;;;;2.67;1.45;;;;;;;;;;5139803;27;20492;-78
2022/07/16 06:18:57;;;;;;;5.97;2.00;;;;;;;;;;5142945;27;20377;-78
2022/07/16 06:21:22;;;;;;;3.40;1.40;;;;;;;;;;5141462;27;20035;-78
2022/07/16 06:23:48;;;;;;;2.50;1.30;;;;;;;;;;5123978;27;20027;-78
2022/07/16 06:26:13;;;;;;;2.90;1.20;;;;;;;;;;5124112;27;20110;-78
2022/07/16 06:28:39;;;;;;;5.35;1.15;;;;;;;;;;5141444;27;20069;-78
2022/07/16 06:31:04;;;;;;;3.70;1.08;;;;;;;;;;5141626;27;20431;-78
2022/07/16 06:33:30;;;;;;;5.35;1.20;;;;;;;;;;5124380;27;20031;-78
2022/07/16 06:35:55;;;;;;;9.63;1.20;;;;;;;;;;5141580;27;20038;-78
2022/07/16 06:38:21;;;;;;;3.85;1.08;;;;;;;;;;5125477;27;20491;-78
2022/07/16 06:40:46;;;;;;;2.70;1.38;;;;;;;;;;5143215;27;20127;-78
2022/07/16 06:43:12;;;;;;;10.75;1.38;;;;;;;;;;5123955;27;20042;-77
2022/07/16 06:45:43;;;;;;;3.50;1.27;;;;;;;;;;5123114;27;20117;-76
2022/07/16 06:48:09;;;;;;;3.97;1.40;;;;;;;;;;5138950;27;20031;-79
2022/07/16 06:50:35;;;;;;;5.68;1.42;;;;;;;;;;5123073;27;20062;-78
2022/07/16 06:53:00;;;;;;;2.78;1.40;;;;;;;;;;5121116;27;20035;-78
2022/07/16 06:55:26;;;;;;;6.80;1.70;;;;;;;;;;5136736;27;20392;-77
2022/07/16 06:57:51;;;;;;;7.22;2.92;;;;;;;;;;5136191;27;20041;-77
2022/07/16 07:00:17;;;;;;;6.13;2.30;;;;;;;;;;5136216;27;20519;-77
2022/07/16 07:02:42;;;;;;;2.50;1.80;;;;;;;;;;5135979;27;20027;-77
2022/07/16 07:05:08;;;;;;;4.60;2.25;;;;;;;;;;5118091;27;20487;-77
2022/07/16 07:07:34;;;;;;;5.38;2.20;;;;;;;;;;5139525;27;20038;-78
2022/07/16 07:10:00;;;;;;;3.83;2.30;;;;;;;;;;5121353;27;20176;-78
2022/07/16 07:12:25;;;;;;;3.17;2.13;;;;;;;;;;5120397;27;20081;-78
2022/07/16 07:14:51;;;;;;;3.83;1.70;;;;;;;;;;5120897;27;20050;-78
2022/07/16 07:17:16;;;;;;;3.00;1.88;;;;;;;;;;5138348;27;20041;-80
2022/07/16 07:19:41;;;;;;;5.72;2.10;;;;;;;;;;5140307;27;20061;-81
2022/07/16 07:22:07;;;;;;;4.78;2.53;;;;;;;;;;5122208;27;20388;-78
2022/07/16 07:24:32;;;;;;;5.05;2.45;;;;;;;;;;5138354;27;20516;-77
2022/07/16 07:26:58;;;;;;;9.07;2.40;;;;;;;;;;5139768;27;20118;-77
2022/07/16 07:29:23;;;;;;;4.13;2.63;;;;;;;;;;5134695;27;20550;-76
2022/07/16 07:31:49;;;;;;;7.97;2.95;;;;;;;;;;5135872;27;20031;-77
2022/07/16 07:34:14;;;;;;;5.07;2.90;;;;;;;;;;5116960;27;20031;-76
2022/07/16 07:36:40;;;;;;;5.40;2.60;;;;;;;;;;5115443;27;20031;-76
2022/07/16 07:39:05;;;;;;;5.60;2.63;;;;;;;;;;5115408;27;20049;-76
2022/07/16 07:41:30;;;;;;;3.85;2.60;;;;;;;;;;5133743;27;20053;-76
2022/07/16 07:43:56;;;;;;;4.72;2.65;;;;;;;;;;5134124;27;20063;-76
2022/07/16 07:46:21;;;;;;;4.72;2.15;;;;;;;;;;5133204;27;20035;-76
2022/07/16 07:48:47;;;;;;;8.63;2.78;;;;;;;;;;5116026;27;20469;-77
2022/07/16 07:51:13;;;;;;;4.43;2.80;;;;;;;;;;5116565;27;20027;-77
2022/07/16 07:53:38;;;;;;;6.00;2.75;;;;;;;;;;5134935;27;20400;-77
2022/07/16 07:56:04;;;;;;;4.07;2.63;;;;;;;;;;5133025;27;20035;-77
2022/07/16 07:58:29;;;;;;;6.60;2.75;;;;;;;;;;5132985;27;20042;-77
2022/07/16 08:00:55;;;;;;;4.85;2.33;;;;;;;;;;5136054;27;20047;-78
2022/07/16 08:03:21;;;;;;;3.78;2.45;;;;;;;;;;5138452;27;20421;-79
2022/07/16 08:05:47;;;;;;;4.90;2.47;;;;;;;;;;5121968;27;20042;-80
2022/07/16 08:08:12;;;;;;;3.05;2.45;;;;;;;;;;5144804;27;20172;-78
2022/07/16 08:10:38;;;;;;;6.63;2.40;;;;;;;;;;5141962;27;20042;-78
2022/07/16 08:13:04;;;;;;;2.97;2.20;;;;;;;;;;5146469;27;20053;-78
2022/07/16 08:15:30;;;;;;;3.50;2.05;;;;;;;;;;5164898;27;20030;-80
2022/07/16 08:17:55;;;;;;;11.93;2.67;;;;;;;;;;5141023;27;20490;-78
2022/07/16 08:20:21;;;;;;;7.13;2.20;;;;;;;;;;5157324;27;20034;-78
2022/07/16 08:22:46;;;;;;;6.82;2.35;;;;;;;;;;5158840;27;20041;-79
2022/07/16 08:27:56;;;;;;;3.83;2.00;;;;;;;;;;5170093;27;20034;-79
2022/07/16 08:30:22;;;;;;;3.65;1.80;;;;;;;;;;5150452;27;20164;-79
2022/07/16 08:32:48;;;;;;;3.97;1.70;;;;;;;;;;5149825;27;20131;-79
2022/07/16 08:35:13;;;;;;;4.68;1.65;;;;;;;;;;5168207;27;20073;-79
2022/07/16 08:37:42;;;;;;;2.30;1.38;;;;;;;;;;5151269;27;20030;-78
2022/07/16 08:40:10;;;;;;;3.20;1.30;;;;;;;;;;5149634;27;20035;-79
2022/07/16 08:42:37;;;;;;;3.85;1.42;;;;;;;;;;5144346;27;20074;-80
2022/07/16 08:45:05;;;;;;;1.83;1.15;;;;;;;;;;5140762;27;20095;-77
2022/07/16 08:47:32;;;;;;;4.03;1.40;;;;;;;;;;5143375;27;20035;-79
2022/07/16 08:49:59;;;;;;;3.28;1.58;;;;;;;;;;5144004;27;20019;-80
2022/07/16 08:52:29;;;;;;;5.10;1.67;;;;;;;;;;5147339;27;20027;-79
2022/07/16 08:54:56;;;;;;;2.53;1.27;;;;;;;;;;5138228;27;20430;-78
2022/07/16 08:57:24;;;;;;;2.65;1.17;;;;;;;;;;5122237;27;20066;-78
2022/07/16 08:59:53;;;;;;;1.83;1.10;;;;;;;;;;5129357;28;20031;-79
2022/07/16 09:02:19;;;;;;;1.67;1.00;;;;;;;;;;5127208;28;20031;-78
2022/07/16 09:04:46;;;;;;;1.63;0.98;;;;;;;;;;5128755;28;20047;-79
2022/07/16 09:07:12;;;;;;;1.85;0.90;;;;;;;;;;5127396;27;20039;-78
2022/07/16 09:09:38;;;;;;;2.05;1.10;;;;;;;;;;5145792;27;20039;-79
2022/07/16 09:12:04;;;;;;;3.42;0.80;;;;;;;;;;5122626;28;20551;-79
2022/07/16 09:14:29;;;;;;;9.30;1.27;;;;;;;;;;5106200;28;20492;-80
2022/07/16 09:16:55;;;;;;;4.20;0.90;;;;;;;;;;5106761;28;20031;-79
2022/07/16 09:19:25;;;;;;;3.95;1.15;;;;;;;;;;5123187;28;20497;-79
2022/07/16 09:21:59;;;;;;;2.10;0.82;;;;;;;;;;5110885;28;20062;-78
2022/07/16 09:24:33;;;;;;;3.53;1.20;;;;;;;;;;5130467;28;20155;-79
2022/07/16 09:27:03;;;;;;;3.47;1.33;;;;;;;;;;5111509;28;20130;-79
2022/07/16 09:29:29;;;;;;;2.95;1.38;;;;;;;;;;5128117;28;20032;-79
2022/07/16 09:31:54;;;;;;;2.67;1.15;;;;;;;;;;5110383;28;20046;-79
2022/07/16 09:34:20;;;;;;;7.38;1.20;;;;;;;;;;5127929;28;20038;-79
2022/07/16 09:36:57;;;;;;;2.20;1.10;;;;;;;;;;5109177;28;20040;-79
2022/07/16 09:39:24;;;;;;;2.67;1.25;;;;;;;;;;5126827;28;20042;-79
2022/07/16 09:41:49;;;;;;;6.25;1.05;;;;;;;;;;5123168;27;20041;-79
2022/07/16 09:44:21;;;;;;;3.83;1.42;;;;;;;;;;5147524;27;20080;-79
2022/07/16 09:47:07;;;;;;;3.40;0.98;;;;;;;;;;5147015;27;20042;-79
2022/07/16 09:49:38;;;;;;;1.83;0.98;;;;;;;;;;5147412;27;20098;-79
2022/07/16 09:52:25;;;;;;;2.65;1.08;;;;;;;;;;5129113;27;20035;-79
2022/07/16 09:54:55;;;;;;;3.67;1.00;;;;;;;;;;5128946;27;20027;-79
2022/07/16 09:57:21;;;;;;;2.17;1.30;;;;;;;;;;5145758;27;20058;-79
2022/07/16 09:59:47;;;;;;;3.05;1.20;;;;;;;;;;5147420;27;20046;-80
2022/07/16 10:02:13;;;;;;;2.08;0.93;;;;;;;;;;5131374;27;20035;-80
2022/07/16 10:04:40;;;;;;;3.53;0.73;;;;;;;;;;5149298;27;20042;-80
2022/07/16 10:07:06;;;;;;;3.65;1.10;;;;;;;;;;5151159;27;20027;-80
2022/07/16 10:09:33;;;;;;;4.32;1.23;;;;;;;;;;5133516;27;20412;-79
2022/07/16 10:12:08;;;;;;;3.33;1.23;;;;;;;;;;5149521;27;20561;-80
2022/07/16 10:14:40;;;;;;;1.90;0.95;;;;;;;;;;5149094;27;20027;-80
2022/07/16 10:17:13;;;;;;;3.50;1.02;;;;;;;;;;5149183;27;20050;-80
2022/07/16 10:19:39;;;;;;;6.38;1.02;;;;;;;;;;5149465;27;20039;-81
2022/07/16 10:22:16;;;;;;;2.60;1.20;;;;;;;;;;5133440;27;20035;-80
2022/07/16 10:24:53;;;;;;;3.30;1.10;;;;;;;;;;5147236;27;20071;-80
2022/07/16 10:27:23;;;;;;;4.95;1.42;;;;;;;;;;5146410;27;20103;-78
2022/07/16 10:29:49;;;;;;;7.18;1.30;;;;;;;;;;5151784;27;20419;-78
2022/07/16 10:32:30;;;;;;;2.80;1.00;;;;;;;;;;5134649;27;20079;-79
2022/07/16 10:34:59;;;;;;;4.30;1.38;;;;;;;;;;5131390;27;20031;-78
2022/07/16 10:37:33;;;;;;;1.75;0.90;;;;;;;;;;5124518;27;20039;-78
2022/07/16 10:40:14;;;;;;;3.38;1.27;;;;;;;;;;5131651;27;20047;-80
2022/07/16 10:42:39;;;;;;;2.70;1.00;;;;;;;;;;5163539;27;20031;-78
2022/07/16 10:45:05;;;;;;;1.90;1.05;;;;;;;;;;5167714;27;20055;-79
2022/07/16 10:47:43;;;;;;;4.53;1.10;;;;;;;;;;5170678;27;20027;-80
2022/07/16 10:50:22;;;;;;;2.15;0.98;;;;;;;;;;5152753;27;20035;-82
2022/07/16 10:52:51;;;;;;;1.55;0.90;;;;;;;;;;5152606;27;20034;-79
2022/07/16 10:55:33;;;;;;;2.70;1.17;;;;;;;;;;5163256;27;20038;-81
2022/07/16 10:58:00;;;;;;;4.40;0.90;;;;;;;;;;5144062;27;20503;-80
2022/07/16 11:00:25;;;;;;;6.45;1.20;;;;;;;;;;5143270;27;20018;-80
2022/07/16 11:02:57;;;;;;;2.55;0.90;;;;;;;;;;5143690;27;20103;-80
2022/07/16 11:05:27;;;;;;;2.28;1.30;;;;;;;;;;5160997;27;20041;-79
2022/07/16 11:07:53;;;;;;;4.85;1.40;;;;;;;;;;5162261;27;20083;-79
2022/07/16 11:10:22;;;;;;;1.95;1.05;;;;;;;;;;5160387;27;20039;-79
2022/07/16 11:12:48;;;;;;;3.40;1.20;;;;;;;;;;5122403;27;20042;-79
2022/07/16 11:15:13;;;;;;;2.85;1.17;;;;;;;;;;5139286;27;20027;-79
2022/07/16 11:17:39;;;;;;;7.63;1.08;;;;;;;;;;5137995;27;20083;-79
2022/07/16 11:20:08;;;;;;;2.30;1.10;;;;;;;;;;5121571;27;20445;-80
2022/07/16 11:22:34;;;;;;;4.47;1.10;;;;;;;;;;5141031;27;20031;-80
2022/07/16 11:25:03;;;;;;;8.52;1.27;;;;;;;;;;5140237;27;20400;-79
2022/07/16 11:27:39;;;;;;;2.63;0.98;;;;;;;;;;5139064;27;20054;-80
2022/07/16 11:30:12;;;;;;;1.80;0.90;;;;;;;;;;5139724;27;20035;-78
2022/07/16 11:32:42;;;;;;;2.13;0.98;;;;;;;;;;5137982;27;20027;-81
2022/07/16 11:35:09;;;;;;;3.15;1.15;;;;;;;;;;5121545;27;20042;-80
2022/07/16 11:37:57;;;;;;;2.58;1.00;;;;;;;;;;5120802;27;20031;-78
2022/07/16 11:40:35;;;;;;;6.40;1.35;;;;;;;;;;5137465;27;20062;-78
2022/07/16 11:43:00;;;;;;;2.20;1.00;;;;;;;;;;5115719;28;20373;-82
2022/07/16 11:45:27;;;;;;;8.13;1.10;;;;;;;;;;5116287;28;20042;-78
2022/07/16 11:48:16;;;;;;;3.65;1.40;;;;;;;;;;5114351;28;20031;-76
2022/07/16 11:50:43;;;;;;;2.60;0.98;;;;;;;;;;5114171;28;20032;-76
2022/07/16 11:53:09;;;;;;;3.38;1.33;;;;;;;;;;5113700;28;20114;-77
2022/07/16 11:55:41;;;;;;;2.65;1.17;;;;;;;;;;5113044;28;20111;-76
2022/07/16 11:58:06;;;;;;;2.60;1.10;;;;;;;;;;5113105;28;20047;-76
2022/07/16 12:00:52;;;;;;;10.02;1.15;;;;;;;;;;5112881;28;20444;-76
2022/07/16 12:03:18;;;;;;;13.38;1.50;;;;;;;;;;5114371;28;20134;-77
2022/07/16 12:05:44;;;;;;;7.97;1.30;;;;;;;;;;5127461;27;20385;-77
2022/07/16 12:08:10;;;;;;;9.63;1.20;;;;;;;;;;5116509;27;20488;-76
2022/07/16 12:10:36;;;;;;;6.88;1.25;;;;;;;;;;5133898;27;20039;-76
2022/07/16 12:13:07;;;;;;;4.35;0.90;;;;;;;;;;5116949;27;20038;-76
2022/07/16 12:15:52;;;;;;;5.55;1.05;;;;;;;;;;5133661;27;20037;-76
2022/07/16 12:18:18;;;;;;;6.25;0.82;;;;;;;;;;5133840;27;20477;-76
2022/07/16 12:20:44;;;;;;;3.45;1.10;;;;;;;;;;5134626;27;20034;-75
2022/07/16 12:23:16;;;;;;;4.55;1.02;;;;;;;;;;5133406;27;20038;-76
2022/07/16 12:25:44;;;;;;;7.97;1.42;;;;;;;;;;5135101;27;20115;-76
2022/07/16 12:28:18;;;;;;;6.47;0.95;;;;;;;;;;5133537;27;20106;-76
2022/07/16 12:30:49;;;;;;;2.60;1.00;;;;;;;;;;5133840;27;20034;-76
2022/07/16 12:33:15;;;;;;;6.70;1.10;;;;;;;;;;5132617;27;20548;-76
2022/07/16 12:35:48;;;;;;;3.03;0.70;;;;;;;;;;5112353;28;20679;-76
2022/07/16 12:38:41;;;;;;;3.75;1.10;;;;;;;;;;5112991;28;20083;-77
2022/07/16 12:41:11;;;;;;;9.95;1.40;;;;;;;;;;5113875;28;20040;-77
2022/07/16 12:43:37;;;;;;;3.95;1.10;;;;;;;;;;5112510;28;20512;-76
2022/07/16 12:46:06;;;;;;;3.95;1.20;;;;;;;;;;5112228;28;20036;-76
2022/07/16 12:48:58;;;;;;;6.93;1.00;;;;;;;;;;5112956;28;20028;-76
2022/07/16 12:51:27;;;;;;;5.47;1.92;;;;;;;;;;5113703;28;20430;-77
2022/07/16 12:53:54;;;;;;;5.18;1.23;;;;;;;;;;5113536;28;20118;-76
2022/07/16 12:59:05;;;;;;;4.22;1.05;;;;;;;;;;5112057;28;20032;-76
2022/07/16 13:01:31;;;;;;;2.58;1.10;;;;;;;;;;5095225;28;20036;-76
2022/07/16 13:03:57;;;;;;;6.75;0.95;;;;;;;;;;5127030;27;20456;-76
2022/07/16 13:06:23;;;;;;;7.90;1.15;;;;;;;;;;5130177;27;20159;-76
2022/07/16 13:08:49;;;;;;;4.72;1.50;;;;;;;;;;5129537;27;20126;-76
2022/07/16 13:11:19;;;;;;;12.02;2.42;;;;;;;;;;5114165;28;20039;-76
2022/07/16 13:13:45;;;;;;;4.45;1.25;;;;;;;;;;5114419;28;20080;-80
2022/07/16 13:16:11;;;;;;;4.70;1.27;;;;;;;;;;5115011;28;20070;-79
2022/07/16 13:18:38;;;;;;;6.45;1.20;;;;;;;;;;5098414;28;20031;-78
2022/07/16 13:21:04;;;;;;;8.70;1.48;;;;;;;;;;5099549;28;20040;-80
2022/07/16 13:23:31;;;;;;;4.13;1.17;;;;;;;;;;5133902;28;20023;-78
2022/07/16 13:25:57;;;;;;;12.88;1.65;;;;;;;;;;5113773;28;20032;-78
2022/07/16 13:28:23;;;;;;;4.63;1.23;;;;;;;;;;5131901;28;20050;-78
2022/07/16 13:30:49;;;;;;;4.22;1.40;;;;;;;;;;5116479;27;20100;-79
2022/07/16 13:33:14;;;;;;;6.65;1.10;;;;;;;;;;5114296;28;20039;-79
2022/07/16 13:35:41;;;;;;;6.13;1.45;;;;;;;;;;5118505;28;20028;-77
2022/07/16 13:38:07;;;;;;;5.43;1.60;;;;;;;;;;5134076;27;20046;-78
2022/07/16 13:40:32;;;;;;;7.40;1.33;;;;;;;;;;5137744;28;20099;-78
2022/07/16 13:42:58;;;;;;;4.28;1.25;;;;;;;;;;5138034;28;20035;-78
2022/07/16 13:45:23;;;;;;;6.57;1.60;;;;;;;;;;5138466;27;20110;-78
2022/07/16 13:47:49;;;;;;;4.60;1.30;;;;;;;;;;5120681;28;20125;-80
2022/07/16 13:50:15;;;;;;;4.95;1.30;;;;;;;;;;5137829;28;20039;-79
2022/07/16 13:52:42;;;;;;;4.07;1.30;;;;;;;;;;5119533;27;20507;-77
2022/07/16 13:55:08;;;;;;;4.65;1.20;;;;;;;;;;5134764;27;20396;-78
2022/07/16 14:00:21;;;;;;;3.10;0.90;;;;;;;;;;5130704;27;20040;-76
2022/07/16 14:02:47;;;;;;;3.03;1.00;;;;;;;;;;5131668;27;20031;-76
2022/07/16 14:05:13;;;;;;;4.93;1.20;;;;;;;;;;5131687;27;20077;-78
2022/07/16 14:07:38;;;;;;;13.10;1.60;;;;;;;;;;5116038;27;20042;-76
2022/07/16 14:10:06;;;;;;;5.10;1.25;;;;;;;;;;5136114;27;20035;-75
2022/07/16 14:12:32;;;;;;;3.72;1.23;;;;;;;;;;5135902;27;20114;-75
2022/07/16 14:14:57;;;;;;;9.32;1.30;;;;;;;;;;5135349;27;20427;-76
2022/07/16 14:17:23;;;;;;;5.55;1.27;;;;;;;;;;5117005;27;20137;-76
2022/07/16 14:19:48;;;;;;;7.03;1.35;;;;;;;;;;5135806;27;20037;-76
2022/07/16 14:22:14;;;;;;;6.50;1.60;;;;;;;;;;5134754;27;20540;-76
2022/07/16 14:24:39;;;;;;;7.65;1.15;;;;;;;;;;5135586;27;20035;-76
2022/07/16 14:27:05;;;;;;;3.63;0.93;;;;;;;;;;5137246;27;20062;-76
2022/07/16 14:29:30;;;;;;;6.70;1.58;;;;;;;;;;5135990;27;20042;-76
2022/07/16 14:31:56;;;;;;;7.75;1.35;;;;;;;;;;5136808;27;20045;-76
2022/07/16 14:34:21;;;;;;;12.05;2.38;;;;;;;;;;5135679;27;20058;-76
2022/07/16 14:36:47;;;;;;;2.90;1.10;;;;;;;;;;5135009;27;20087;-76
2022/07/16 14:39:12;;;;;;;5.18;1.42;;;;;;;;;;5136965;27;20046;-76
2022/07/16 14:41:37;;;;;;;3.08;1.30;;;;;;;;;;5135157;27;20126;-76
2022/07/16 14:44:03;;;;;;;5.07;1.10;;;;;;;;;;5135214;27;20419;-76
2022/07/16 14:46:28;;;;;;;2.67;0.88;;;;;;;;;;5136051;27;20042;-76
2022/07/16 14:48:54;;;;;;;2.22;0.90;;;;;;;;;;5137003;27;20031;-76
2022/07/16 14:51:19;;;;;;;2.45;0.90;;;;;;;;;;5120364;27;20035;-76
2022/07/16 14:53:44;;;;;;;8.43;2.75;;;;;;;;;;5137123;27;20084;-76
2022/07/16 14:56:10;;;;;;;5.10;1.20;;;;;;;;;;5136426;27;20117;-76
2022/07/16 14:58:36;;;;;;;4.80;1.45;;;;;;;;;;5117254;27;20027;-76
2022/07/16 15:01:01;;;;;;;5.18;1.55;;;;;;;;;;5134523;27;20098;-76
2022/07/16 15:03:27;;;;;;;2.42;1.13;;;;;;;;;;5134705;27;20031;-76